sensor_id;sensor_type;location;lat;lon;timestamp;P1;durP1;ratioP1;P2;durP2;ratioP2
74523;SDS011;63074;44.696;10.358;2022-09-09T00:03:41;3.22;;;0.80;;
74523;SDS011;63074;44.696;10.358;2022-09-09T00:06:22;1.60;;;0.73;;
74523;SDS011;63074;44.696;10.358;2022-09-09T00:14:38;3.20;;;0.60;;
74523;SDS011;63074;44.696;10.358;2022-09-09T00:17:25;1.83;;;0.50;;
74523;SDS011;63074;44.696;10.358;2022-09-09T00:19:54;2.63;;;1.00;;
74523;SDS011;63074;44.696;10.358;2022-09-09T00:22:25;1.40;;;0.75;;
74523;SDS011;63074;44.696;10.358;2022-09-09T00:24:57;2.72;;;0.88;;
74523;SDS011;63074;44.696;10.358;2022-09-09T00:27:40;2.35;;;0.82;;
74523;SDS011;63074;44.696;10.358;2022-09-09T00:32:44;2.17;;;0.95;;
74523;SDS011;63074;44.696;10.358;2022-09-09T00:37:34;4.05;;;0.80;;
74523;SDS011;63074;44.696;10.358;2022-09-09T00:40:01;1.90;;;0.52;;
74523;SDS011;63074;44.696;10.358;2022-09-09T00:42:40;4.20;;;0.82;;
74523;SDS011;63074;44.696;10.358;2022-09-09T00:47:50;3.67;;;0.60;;
74523;SDS011;63074;44.696;10.358;2022-09-09T00:53:20;2.38;;;0.55;;
74523;SDS011;63074;44.696;10.358;2022-09-09T01:01:35;2.30;;;0.38;;
74523;SDS011;63074;44.696;10.358;2022-09-09T01:04:01;1.77;;;0.40;;
74523;SDS011;63074;44.696;10.358;2022-09-09T01:06:31;1.63;;;0.45;;
74523;SDS011;63074;44.696;10.358;2022-09-09T01:11:56;0.90;;;0.30;;
74523;SDS011;63074;44.696;10.358;2022-09-09T01:17:03;3.13;;;0.47;;
74523;SDS011;63074;44.696;10.358;2022-09-09T01:28:19;2.45;;;0.47;;
74523;SDS011;63074;44.696;10.358;2022-09-09T01:30:50;1.17;;;0.63;;
74523;SDS011;63074;44.696;10.358;2022-09-09T01:33:16;1.75;;;0.57;;
74523;SDS011;63074;44.696;10.358;2022-09-09T01:35:45;2.35;;;0.43;;
74523;SDS011;63074;44.696;10.358;2022-09-09T01:38:12;1.58;;;0.63;;
74523;SDS011;63074;44.696;10.358;2022-09-09T01:40:38;3.08;;;0.88;;
74523;SDS011;63074;44.696;10.358;2022-09-09T01:43:04;1.63;;;0.82;;
74523;SDS011;63074;44.696;10.358;2022-09-09T01:45:31;2.25;;;0.80;;
74523;SDS011;63074;44.696;10.358;2022-09-09T01:47:57;5.03;;;1.30;;
74523;SDS011;63074;44.696;10.358;2022-09-09T01:50:23;4.47;;;0.88;;
74523;SDS011;63074;44.696;10.358;2022-09-09T01:52:51;3.53;;;1.20;;
74523;SDS011;63074;44.696;10.358;2022-09-09T01:55:23;5.20;;;0.98;;
74523;SDS011;63074;44.696;10.358;2022-09-09T02:00:43;2.80;;;0.75;;
74523;SDS011;63074;44.696;10.358;2022-09-09T02:03:21;1.98;;;0.70;;
74523;SDS011;63074;44.696;10.358;2022-09-09T02:11:08;1.25;;;0.45;;
74523;SDS011;63074;44.696;10.358;2022-09-09T02:13:38;3.22;;;1.05;;
74523;SDS011;63074;44.696;10.358;2022-09-09T02:16:08;4.28;;;0.88;;
74523;SDS011;63074;44.696;10.358;2022-09-09T02:18:52;3.03;;;0.93;;
74523;SDS011;63074;44.696;10.358;2022-09-09T02:21:22;2.28;;;0.70;;
74523;SDS011;63074;44.696;10.358;2022-09-09T02:23:49;2.88;;;0.90;;
74523;SDS011;63074;44.696;10.358;2022-09-09T02:26:18;2.15;;;0.77;;
74523;SDS011;63074;44.696;10.358;2022-09-09T02:28:50;2.35;;;0.98;;
74523;SDS011;63074;44.696;10.358;2022-09-09T02:31:17;3.40;;;0.75;;
74523;SDS011;63074;44.696;10.358;2022-09-09T02:33:46;2.08;;;0.55;;
74523;SDS011;63074;44.696;10.358;2022-09-09T02:36:16;1.55;;;0.63;;
74523;SDS011;63074;44.696;10.358;2022-09-09T02:38:45;3.53;;;0.57;;
74523;SDS011;63074;44.696;10.358;2022-09-09T02:41:16;3.72;;;1.27;;
74523;SDS011;63074;44.696;10.358;2022-09-09T02:43:44;3.10;;;0.95;;
74523;SDS011;63074;44.696;10.358;2022-09-09T02:49:17;3.58;;;0.95;;
74523;SDS011;63074;44.696;10.358;2022-09-09T02:52:06;4.35;;;1.48;;
74523;SDS011;63074;44.696;10.358;2022-09-09T02:54:37;8.05;;;1.48;;
74523;SDS011;63074;44.696;10.358;2022-09-09T02:57:11;3.72;;;1.00;;
74523;SDS011;63074;44.696;10.358;2022-09-09T02:59:43;1.85;;;0.70;;
74523;SDS011;63074;44.696;10.358;2022-09-09T03:02:09;4.85;;;1.27;;
74523;SDS011;63074;44.696;10.358;2022-09-09T03:04:36;1.42;;;0.57;;
74523;SDS011;63074;44.696;10.358;2022-09-09T03:07:02;1.95;;;0.68;;
74523;SDS011;63074;44.696;10.358;2022-09-09T03:09:28;1.63;;;0.50;;
74523;SDS011;63074;44.696;10.358;2022-09-09T03:11:54;2.22;;;0.55;;
74523;SDS011;63074;44.696;10.358;2022-09-09T03:14:20;2.60;;;0.50;;
74523;SDS011;63074;44.696;10.358;2022-09-09T03:16:49;1.85;;;0.40;;
74523;SDS011;63074;44.696;10.358;2022-09-09T03:19:15;1.60;;;0.40;;
74523;SDS011;63074;44.696;10.358;2022-09-09T03:21:40;2.33;;;0.43;;
74523;SDS011;63074;44.696;10.358;2022-09-09T03:24:06;1.30;;;0.55;;
74523;SDS011;63074;44.696;10.358;2022-09-09T03:26:32;1.73;;;0.50;;
74523;SDS011;63074;44.696;10.358;2022-09-09T03:28:57;1.63;;;0.30;;
74523;SDS011;63074;44.696;10.358;2022-09-09T03:31:25;3.65;;;0.40;;
74523;SDS011;63074;44.696;10.358;2022-09-09T03:33:51;1.58;;;0.40;;
74523;SDS011;63074;44.696;10.358;2022-09-09T03:36:16;2.97;;;1.33;;
74523;SDS011;63074;44.696;10.358;2022-09-09T03:38:41;1.92;;;0.60;;
74523;SDS011;63074;44.696;10.358;2022-09-09T03:41:07;0.93;;;0.35;;
74523;SDS011;63074;44.696;10.358;2022-09-09T03:43:32;2.80;;;0.40;;
74523;SDS011;63074;44.696;10.358;2022-09-09T03:45:58;2.55;;;0.40;;
74523;SDS011;63074;44.696;10.358;2022-09-09T03:48:24;1.02;;;0.38;;
74523;SDS011;63074;44.696;10.358;2022-09-09T03:50:51;1.40;;;0.40;;
74523;SDS011;63074;44.696;10.358;2022-09-09T03:53:18;1.55;;;0.85;;
74523;SDS011;63074;44.696;10.358;2022-09-09T03:55:47;1.48;;;0.40;;
74523;SDS011;63074;44.696;10.358;2022-09-09T03:58:14;3.42;;;0.43;;
74523;SDS011;63074;44.696;10.358;2022-09-09T04:00:40;1.38;;;0.57;;
74523;SDS011;63074;44.696;10.358;2022-09-09T04:03:11;1.55;;;0.65;;
74523;SDS011;63074;44.696;10.358;2022-09-09T04:08:07;2.28;;;0.40;;
74523;SDS011;63074;44.696;10.358;2022-09-09T04:10:33;2.33;;;0.60;;
74523;SDS011;63074;44.696;10.358;2022-09-09T04:13:01;3.58;;;1.67;;
74523;SDS011;63074;44.696;10.358;2022-09-09T04:15:26;1.15;;;0.65;;
74523;SDS011;63074;44.696;10.358;2022-09-09T04:17:53;2.60;;;1.30;;
74523;SDS011;63074;44.696;10.358;2022-09-09T04:20:18;2.05;;;1.05;;
74523;SDS011;63074;44.696;10.358;2022-09-09T04:22:44;1.98;;;0.80;;
74523;SDS011;63074;44.696;10.358;2022-09-09T04:25:09;2.13;;;0.88;;
74523;SDS011;63074;44.696;10.358;2022-09-09T04:27:35;1.83;;;0.52;;
74523;SDS011;63074;44.696;10.358;2022-09-09T04:30:00;1.52;;;0.73;;
74523;SDS011;63074;44.696;10.358;2022-09-09T04:32:26;4.43;;;1.15;;
74523;SDS011;63074;44.696;10.358;2022-09-09T04:34:52;2.25;;;0.65;;
74523;SDS011;63074;44.696;10.358;2022-09-09T04:37:17;0.88;;;0.43;;
74523;SDS011;63074;44.696;10.358;2022-09-09T04:39:43;3.38;;;1.08;;
74523;SDS011;63074;44.696;10.358;2022-09-09T04:42:08;2.17;;;0.40;;
74523;SDS011;63074;44.696;10.358;2022-09-09T04:44:34;1.42;;;0.65;;
74523;SDS011;63074;44.696;10.358;2022-09-09T04:46:59;1.60;;;0.73;;
74523;SDS011;63074;44.696;10.358;2022-09-09T04:49:24;1.40;;;0.82;;
74523;SDS011;63074;44.696;10.358;2022-09-09T04:51:51;2.22;;;0.70;;
74523;SDS011;63074;44.696;10.358;2022-09-09T04:54:16;1.73;;;0.77;;
74523;SDS011;63074;44.696;10.358;2022-09-09T04:56:42;2.42;;;0.77;;
74523;SDS011;63074;44.696;10.358;2022-09-09T04:59:08;2.80;;;0.90;;
74523;SDS011;63074;44.696;10.358;2022-09-09T05:01:34;3.05;;;0.98;;
74523;SDS011;63074;44.696;10.358;2022-09-09T05:04:01;4.60;;;0.95;;
74523;SDS011;63074;44.696;10.358;2022-09-09T05:06:27;5.45;;;0.63;;
74523;SDS011;63074;44.696;10.358;2022-09-09T05:08:54;2.25;;;0.57;;
74523;SDS011;63074;44.696;10.358;2022-09-09T05:11:21;2.70;;;1.50;;
74523;SDS011;63074;44.696;10.358;2022-09-09T05:13:49;7.68;;;2.47;;
74523;SDS011;63074;44.696;10.358;2022-09-09T05:16:15;3.10;;;1.80;;
74523;SDS011;63074;44.696;10.358;2022-09-09T05:18:41;4.35;;;1.60;;
74523;SDS011;63074;44.696;10.358;2022-09-09T05:21:11;4.45;;;1.15;;
74523;SDS011;63074;44.696;10.358;2022-09-09T05:23:38;4.68;;;0.88;;
74523;SDS011;63074;44.696;10.358;2022-09-09T05:26:04;2.85;;;0.50;;
74523;SDS011;63074;44.696;10.358;2022-09-09T05:28:30;2.80;;;0.60;;
74523;SDS011;63074;44.696;10.358;2022-09-09T05:31:03;1.27;;;0.60;;
74523;SDS011;63074;44.696;10.358;2022-09-09T05:33:30;1.92;;;0.43;;
74523;SDS011;63074;44.696;10.358;2022-09-09T05:36:01;2.38;;;0.65;;
74523;SDS011;63074;44.696;10.358;2022-09-09T05:38:32;2.67;;;0.98;;
74523;SDS011;63074;44.696;10.358;2022-09-09T05:40:59;5.43;;;0.93;;
74523;SDS011;63074;44.696;10.358;2022-09-09T05:43:26;2.50;;;1.00;;
74523;SDS011;63074;44.696;10.358;2022-09-09T05:46:25;1.30;;;0.60;;
74523;SDS011;63074;44.696;10.358;2022-09-09T05:48:46;2.88;;;0.93;;
74523;SDS011;63074;44.696;10.358;2022-09-09T05:51:13;9.07;;;1.10;;
74523;SDS011;63074;44.696;10.358;2022-09-09T05:53:43;3.38;;;1.05;;
74523;SDS011;63074;44.696;10.358;2022-09-09T05:56:13;2.13;;;0.95;;
74523;SDS011;63074;44.696;10.358;2022-09-09T05:58:42;3.08;;;0.90;;
74523;SDS011;63074;44.696;10.358;2022-09-09T06:03:43;3.15;;;0.95;;
74523;SDS011;63074;44.696;10.358;2022-09-09T06:06:11;2.15;;;1.08;;
74523;SDS011;63074;44.696;10.358;2022-09-09T06:08:51;1.90;;;0.70;;
74523;SDS011;63074;44.696;10.358;2022-09-09T06:11:19;2.70;;;0.85;;
74523;SDS011;63074;44.696;10.358;2022-09-09T06:13:46;0.88;;;0.30;;
74523;SDS011;63074;44.696;10.358;2022-09-09T06:16:13;0.82;;;0.25;;
74523;SDS011;63074;44.696;10.358;2022-09-09T06:18:42;3.15;;;0.63;;
74523;SDS011;63074;44.696;10.358;2022-09-09T06:23:52;1.38;;;0.63;;
74523;SDS011;63074;44.696;10.358;2022-09-09T06:28:45;1.80;;;0.63;;
74523;SDS011;63074;44.696;10.358;2022-09-09T06:31:13;1.90;;;0.35;;
74523;SDS011;63074;44.696;10.358;2022-09-09T06:33:42;0.77;;;0.45;;
74523;SDS011;63074;44.696;10.358;2022-09-09T06:36:13;1.83;;;0.43;;
74523;SDS011;63074;44.696;10.358;2022-09-09T06:38:40;1.58;;;0.43;;
74523;SDS011;63074;44.696;10.358;2022-09-09T06:41:07;0.85;;;0.35;;
74523;SDS011;63074;44.696;10.358;2022-09-09T06:43:34;1.30;;;0.57;;
74523;SDS011;63074;44.696;10.358;2022-09-09T06:48:33;2.97;;;1.05;;
74523;SDS011;63074;44.696;10.358;2022-09-09T06:53:28;1.75;;;0.75;;
74523;SDS011;63074;44.696;10.358;2022-09-09T06:55:54;3.35;;;0.77;;
74523;SDS011;63074;44.696;10.358;2022-09-09T06:58:20;3.47;;;1.02;;
74523;SDS011;63074;44.696;10.358;2022-09-09T07:00:47;2.42;;;0.70;;
74523;SDS011;63074;44.696;10.358;2022-09-09T07:03:13;2.53;;;0.70;;
74523;SDS011;63074;44.696;10.358;2022-09-09T07:05:38;3.45;;;1.13;;
74523;SDS011;63074;44.696;10.358;2022-09-09T07:08:04;4.20;;;1.23;;
74523;SDS011;63074;44.696;10.358;2022-09-09T07:10:30;2.05;;;0.70;;
74523;SDS011;63074;44.696;10.358;2022-09-09T07:12:56;2.25;;;0.95;;
74523;SDS011;63074;44.696;10.358;2022-09-09T07:15:21;1.48;;;0.63;;
74523;SDS011;63074;44.696;10.358;2022-09-09T07:17:48;3.33;;;1.05;;
74523;SDS011;63074;44.696;10.358;2022-09-09T07:20:14;2.42;;;0.95;;
74523;SDS011;63074;44.696;10.358;2022-09-09T07:22:40;2.50;;;0.68;;
74523;SDS011;63074;44.696;10.358;2022-09-09T07:25:06;1.50;;;1.33;;
74523;SDS011;63074;44.696;10.358;2022-09-09T07:27:32;2.08;;;0.98;;
74523;SDS011;63074;44.696;10.358;2022-09-09T07:29:57;2.47;;;0.93;;
74523;SDS011;63074;44.696;10.358;2022-09-09T07:32:23;2.20;;;0.82;;
74523;SDS011;63074;44.696;10.358;2022-09-09T07:34:48;1.73;;;0.90;;
74523;SDS011;63074;44.696;10.358;2022-09-09T07:37:15;4.57;;;1.17;;
74523;SDS011;63074;44.696;10.358;2022-09-09T07:39:41;2.95;;;0.80;;
74523;SDS011;63074;44.696;10.358;2022-09-09T07:42:07;1.95;;;1.08;;
74523;SDS011;63074;44.696;10.358;2022-09-09T07:44:34;2.60;;;1.30;;
74523;SDS011;63074;44.696;10.358;2022-09-09T07:47:01;3.08;;;1.20;;
74523;SDS011;63074;44.696;10.358;2022-09-09T07:49:27;4.78;;;1.48;;
74523;SDS011;63074;44.696;10.358;2022-09-09T07:51:53;3.17;;;1.60;;
74523;SDS011;63074;44.696;10.358;2022-09-09T07:54:19;6.97;;;2.00;;
74523;SDS011;63074;44.696;10.358;2022-09-09T07:56:45;5.75;;;2.65;;
74523;SDS011;63074;44.696;10.358;2022-09-09T07:59:11;6.63;;;2.80;;
74523;SDS011;63074;44.696;10.358;2022-09-09T08:01:41;6.88;;;2.60;;
74523;SDS011;63074;44.696;10.358;2022-09-09T08:04:15;4.20;;;2.42;;
74523;SDS011;63074;44.696;10.358;2022-09-09T08:06:47;5.70;;;2.08;;
74523;SDS011;63074;44.696;10.358;2022-09-09T08:09:17;5.93;;;3.05;;
74523;SDS011;63074;44.696;10.358;2022-09-09T08:11:44;7.32;;;2.95;;
74523;SDS011;63074;44.696;10.358;2022-09-09T08:14:10;5.88;;;2.97;;
74523;SDS011;63074;44.696;10.358;2022-09-09T08:16:37;11.07;;;3.63;;
74523;SDS011;63074;44.696;10.358;2022-09-09T08:19:05;9.43;;;3.92;;
74523;SDS011;63074;44.696;10.358;2022-09-09T08:21:32;8.68;;;3.60;;
74523;SDS011;63074;44.696;10.358;2022-09-09T08:24:00;7.13;;;3.53;;
74523;SDS011;63074;44.696;10.358;2022-09-09T08:26:30;8.73;;;3.38;;
74523;SDS011;63074;44.696;10.358;2022-09-09T08:28:59;6.55;;;3.25;;
74523;SDS011;63074;44.696;10.358;2022-09-09T08:31:27;7.10;;;2.72;;
74523;SDS011;63074;44.696;10.358;2022-09-09T08:33:58;7.78;;;3.28;;
74523;SDS011;63074;44.696;10.358;2022-09-09T08:36:25;5.30;;;3.13;;
74523;SDS011;63074;44.696;10.358;2022-09-09T08:38:53;5.72;;;2.50;;
74523;SDS011;63074;44.696;10.358;2022-09-09T08:53:27;11.10;;;4.95;;
74523;SDS011;63074;44.696;10.358;2022-09-09T08:58:18;10.80;;;4.35;;
74523;SDS011;63074;44.696;10.358;2022-09-09T09:06:05;17.67;;;6.75;;
74523;SDS011;63074;44.696;10.358;2022-09-09T09:11:18;17.08;;;8.10;;
74523;SDS011;63074;44.696;10.358;2022-09-09T09:16:39;16.83;;;7.72;;
74523;SDS011;63074;44.696;10.358;2022-09-09T09:19:16;15.38;;;7.75;;
74523;SDS011;63074;44.696;10.358;2022-09-09T09:27:15;16.67;;;7.90;;
74523;SDS011;63074;44.696;10.358;2022-09-09T09:30:06;20.80;;;9.25;;
74523;SDS011;63074;44.696;10.358;2022-09-09T09:32:40;18.17;;;9.18;;
74523;SDS011;63074;44.696;10.358;2022-09-09T09:35:13;16.92;;;8.07;;
74523;SDS011;63074;44.696;10.358;2022-09-09T09:37:40;18.60;;;8.68;;
74523;SDS011;63074;44.696;10.358;2022-09-09T09:42:38;15.75;;;6.47;;
74523;SDS011;63074;44.696;10.358;2022-09-09T09:45:15;15.07;;;7.82;;
74523;SDS011;63074;44.696;10.358;2022-09-09T09:47:57;16.85;;;8.85;;
74523;SDS011;63074;44.696;10.358;2022-09-09T09:50:28;15.45;;;7.85;;
74523;SDS011;63074;44.696;10.358;2022-09-09T09:52:55;15.30;;;7.00;;
74523;SDS011;63074;44.696;10.358;2022-09-09T09:55:22;14.50;;;6.72;;
74523;SDS011;63074;44.696;10.358;2022-09-09T09:57:49;14.02;;;7.57;;
74523;SDS011;63074;44.696;10.358;2022-09-09T10:00:19;18.27;;;7.45;;
74523;SDS011;63074;44.696;10.358;2022-09-09T10:02:47;17.95;;;8.07;;
74523;SDS011;63074;44.696;10.358;2022-09-09T10:05:21;15.05;;;7.18;;
74523;SDS011;63074;44.696;10.358;2022-09-09T10:08:02;15.30;;;5.32;;
74523;SDS011;63074;44.696;10.358;2022-09-09T10:13:31;10.02;;;5.18;;
74523;SDS011;63074;44.696;10.358;2022-09-09T10:16:21;12.27;;;6.07;;
74523;SDS011;63074;44.696;10.358;2022-09-09T10:19:00;9.48;;;4.38;;
74523;SDS011;63074;44.696;10.358;2022-09-09T10:21:42;8.68;;;3.90;;
74523;SDS011;63074;44.696;10.358;2022-09-09T10:32:36;13.43;;;6.55;;
74523;SDS011;63074;44.696;10.358;2022-09-09T10:35:17;15.13;;;7.03;;
74523;SDS011;63074;44.696;10.358;2022-09-09T10:37:48;14.40;;;3.95;;
74523;SDS011;63074;44.696;10.358;2022-09-09T10:40:26;15.40;;;6.80;;
74523;SDS011;63074;44.696;10.358;2022-09-09T10:43:20;12.02;;;5.63;;
74523;SDS011;63074;44.696;10.358;2022-09-09T10:52:14;9.00;;;4.20;;
74523;SDS011;63074;44.696;10.358;2022-09-09T10:54:52;6.38;;;2.50;;
74523;SDS011;63074;44.696;10.358;2022-09-09T10:57:39;6.13;;;2.50;;
74523;SDS011;63074;44.696;10.358;2022-09-09T11:00:21;7.05;;;3.20;;
74523;SDS011;63074;44.696;10.358;2022-09-09T11:02:54;12.50;;;5.35;;
74523;SDS011;63074;44.696;10.358;2022-09-09T11:05:35;12.43;;;3.65;;
74523;SDS011;63074;44.696;10.358;2022-09-09T11:14:03;10.77;;;6.35;;
74523;SDS011;63074;44.696;10.358;2022-09-09T11:24:45;8.68;;;3.63;;
74523;SDS011;63074;44.696;10.358;2022-09-09T11:27:19;7.15;;;3.13;;
74523;SDS011;63074;44.696;10.358;2022-09-09T11:35:32;7.18;;;3.20;;
74523;SDS011;63074;44.696;10.358;2022-09-09T11:41:09;9.10;;;3.72;;
74523;SDS011;63074;44.696;10.358;2022-09-09T11:43:41;5.45;;;2.90;;
74523;SDS011;63074;44.696;10.358;2022-09-09T11:46:13;8.15;;;3.30;;
74523;SDS011;63074;44.696;10.358;2022-09-09T11:48:44;5.60;;;2.90;;
74523;SDS011;63074;44.696;10.358;2022-09-09T11:51:25;6.22;;;2.35;;
74523;SDS011;63074;44.696;10.358;2022-09-09T11:53:54;5.30;;;2.25;;
74523;SDS011;63074;44.696;10.358;2022-09-09T11:56:32;5.45;;;2.03;;
74523;SDS011;63074;44.696;10.358;2022-09-09T12:07:03;6.82;;;2.28;;
74523;SDS011;63074;44.696;10.358;2022-09-09T12:12:25;5.15;;;2.85;;
74523;SDS011;63074;44.696;10.358;2022-09-09T12:15:18;3.33;;;1.92;;
74523;SDS011;63074;44.696;10.358;2022-09-09T12:21:08;4.45;;;1.50;;
74523;SDS011;63074;44.696;10.358;2022-09-09T12:30:04;4.43;;;0.90;;
74523;SDS011;63074;44.696;10.358;2022-09-09T12:32:34;6.60;;;1.90;;
74523;SDS011;63074;44.696;10.358;2022-09-09T12:40:21;3.85;;;1.48;;
74523;SDS011;63074;44.696;10.358;2022-09-09T12:42:54;3.38;;;1.38;;
74523;SDS011;63074;44.696;10.358;2022-09-09T12:45:23;3.53;;;1.95;;
74523;SDS011;63074;44.696;10.358;2022-09-09T12:50:22;4.38;;;1.33;;
74523;SDS011;63074;44.696;10.358;2022-09-09T12:55:52;2.70;;;1.23;;
74523;SDS011;63074;44.696;10.358;2022-09-09T12:58:22;5.03;;;1.08;;
74523;SDS011;63074;44.696;10.358;2022-09-09T13:00:48;4.22;;;1.27;;
74523;SDS011;63074;44.696;10.358;2022-09-09T13:03:17;4.85;;;1.42;;
74523;SDS011;63074;44.696;10.358;2022-09-09T13:05:45;3.72;;;0.93;;
74523;SDS011;63074;44.696;10.358;2022-09-09T13:08:12;4.88;;;0.90;;
74523;SDS011;63074;44.696;10.358;2022-09-09T13:10:53;4.32;;;1.38;;
74523;SDS011;63074;44.696;10.358;2022-09-09T13:13:24;2.47;;;1.23;;
74523;SDS011;63074;44.696;10.358;2022-09-09T13:15:58;2.50;;;1.02;;
74523;SDS011;63074;44.696;10.358;2022-09-09T13:18:26;2.85;;;0.95;;
74523;SDS011;63074;44.696;10.358;2022-09-09T13:20:54;3.13;;;1.02;;
74523;SDS011;63074;44.696;10.358;2022-09-09T13:23:22;2.33;;;1.23;;
74523;SDS011;63074;44.696;10.358;2022-09-09T13:25:58;4.63;;;1.15;;
74523;SDS011;63074;44.696;10.358;2022-09-09T13:28:26;3.88;;;1.45;;
74523;SDS011;63074;44.696;10.358;2022-09-09T13:33:28;3.15;;;1.13;;
74523;SDS011;63074;44.696;10.358;2022-09-09T13:36:02;3.97;;;1.00;;
74523;SDS011;63074;44.696;10.358;2022-09-09T13:38:30;6.95;;;0.90;;
74523;SDS011;63074;44.696;10.358;2022-09-09T13:43:26;2.00;;;0.88;;
74523;SDS011;63074;44.696;10.358;2022-09-09T13:45:57;2.13;;;0.82;;
74523;SDS011;63074;44.696;10.358;2022-09-09T13:48:27;2.80;;;0.77;;
74523;SDS011;63074;44.696;10.358;2022-09-09T13:50:53;2.30;;;1.00;;
74523;SDS011;63074;44.696;10.358;2022-09-09T13:53:20;3.42;;;1.42;;
74523;SDS011;63074;44.696;10.358;2022-09-09T13:55:46;2.60;;;1.27;;
74523;SDS011;63074;44.696;10.358;2022-09-09T13:58:15;4.80;;;1.33;;
74523;SDS011;63074;44.696;10.358;2022-09-09T14:00:43;5.50;;;1.13;;
74523;SDS011;63074;44.696;10.358;2022-09-09T14:03:09;3.47;;;1.98;;
74523;SDS011;63074;44.696;10.358;2022-09-09T14:05:35;2.95;;;1.35;;
74523;SDS011;63074;44.696;10.358;2022-09-09T14:08:00;4.35;;;1.27;;
74523;SDS011;63074;44.696;10.358;2022-09-09T14:10:29;2.47;;;1.10;;
74523;SDS011;63074;44.696;10.358;2022-09-09T14:12:54;4.88;;;1.10;;
74523;SDS011;63074;44.696;10.358;2022-09-09T14:15:21;4.68;;;1.25;;
74523;SDS011;63074;44.696;10.358;2022-09-09T14:17:47;3.22;;;1.27;;
74523;SDS011;63074;44.696;10.358;2022-09-09T14:20:13;3.10;;;1.23;;
74523;SDS011;63074;44.696;10.358;2022-09-09T14:22:40;2.75;;;1.02;;
74523;SDS011;63074;44.696;10.358;2022-09-09T14:25:06;4.03;;;0.95;;
74523;SDS011;63074;44.696;10.358;2022-09-09T14:27:32;4.40;;;1.65;;
74523;SDS011;63074;44.696;10.358;2022-09-09T14:29:58;3.63;;;1.15;;
74523;SDS011;63074;44.696;10.358;2022-09-09T14:32:25;2.40;;;1.23;;
74523;SDS011;63074;44.696;10.358;2022-09-09T14:34:50;5.18;;;1.48;;
74523;SDS011;63074;44.696;10.358;2022-09-09T14:37:16;6.07;;;1.27;;
74523;SDS011;63074;44.696;10.358;2022-09-09T14:39:43;4.22;;;1.60;;
74523;SDS011;63074;44.696;10.358;2022-09-09T14:42:09;1.95;;;0.93;;
74523;SDS011;63074;44.696;10.358;2022-09-09T14:44:36;3.10;;;1.23;;
74523;SDS011;63074;44.696;10.358;2022-09-09T14:47:03;1.75;;;0.95;;
74523;SDS011;63074;44.696;10.358;2022-09-09T14:49:29;7.85;;;1.95;;
74523;SDS011;63074;44.696;10.358;2022-09-09T14:51:55;3.25;;;1.35;;
74523;SDS011;63074;44.696;10.358;2022-09-09T14:54:20;3.95;;;1.23;;
74523;SDS011;63074;44.696;10.358;2022-09-09T14:56:47;4.85;;;1.27;;
74523;SDS011;63074;44.696;10.358;2022-09-09T14:59:13;2.33;;;1.15;;
74523;SDS011;63074;44.696;10.358;2022-09-09T15:01:38;3.70;;;1.27;;
74523;SDS011;63074;44.696;10.358;2022-09-09T15:04:04;4.43;;;1.38;;
74523;SDS011;63074;44.696;10.358;2022-09-09T15:06:33;2.72;;;1.33;;
74523;SDS011;63074;44.696;10.358;2022-09-09T15:09:01;3.80;;;1.33;;
74523;SDS011;63074;44.696;10.358;2022-09-09T15:11:28;2.58;;;1.23;;
74523;SDS011;63074;44.696;10.358;2022-09-09T15:13:59;3.65;;;1.33;;
74523;SDS011;63074;44.696;10.358;2022-09-09T15:16:26;4.50;;;1.45;;
74523;SDS011;63074;44.696;10.358;2022-09-09T15:18:53;3.55;;;1.33;;
74523;SDS011;63074;44.696;10.358;2022-09-09T15:21:21;3.90;;;1.55;;
74523;SDS011;63074;44.696;10.358;2022-09-09T15:23:49;4.22;;;1.65;;
74523;SDS011;63074;44.696;10.358;2022-09-09T15:26:15;7.75;;;2.40;;
74523;SDS011;63074;44.696;10.358;2022-09-09T15:28:42;2.60;;;1.67;;
74523;SDS011;63074;44.696;10.358;2022-09-09T15:31:12;5.85;;;1.98;;
74523;SDS011;63074;44.696;10.358;2022-09-09T15:33:58;3.80;;;1.65;;
74523;SDS011;63074;44.696;10.358;2022-09-09T15:36:33;4.85;;;2.17;;
74523;SDS011;63074;44.696;10.358;2022-09-09T15:38:59;3.90;;;1.40;;
74523;SDS011;63074;44.696;10.358;2022-09-09T15:41:26;3.53;;;1.75;;
74523;SDS011;63074;44.696;10.358;2022-09-09T15:43:53;5.43;;;2.70;;
74523;SDS011;63074;44.696;10.358;2022-09-09T15:46:35;6.78;;;2.45;;
74523;SDS011;63074;44.696;10.358;2022-09-09T15:49:09;6.40;;;2.70;;
74523;SDS011;63074;44.696;10.358;2022-09-09T15:51:35;5.65;;;2.42;;
74523;SDS011;63074;44.696;10.358;2022-09-09T15:54:02;4.90;;;2.47;;
74523;SDS011;63074;44.696;10.358;2022-09-09T15:56:29;5.30;;;2.17;;
74523;SDS011;63074;44.696;10.358;2022-09-09T15:58:59;6.15;;;2.28;;
74523;SDS011;63074;44.696;10.358;2022-09-09T16:01:28;5.53;;;2.38;;
74523;SDS011;63074;44.696;10.358;2022-09-09T16:03:55;6.85;;;2.67;;
74523;SDS011;63074;44.696;10.358;2022-09-09T16:06:22;5.20;;;2.65;;
74523;SDS011;63074;44.696;10.358;2022-09-09T16:08:49;6.10;;;1.85;;
74523;SDS011;63074;44.696;10.358;2022-09-09T16:11:17;3.33;;;1.73;;
74523;SDS011;63074;44.696;10.358;2022-09-09T16:13:46;5.88;;;1.73;;
74523;SDS011;63074;44.696;10.358;2022-09-09T16:16:14;7.10;;;2.90;;
74523;SDS011;63074;44.696;10.358;2022-09-09T16:18:44;5.45;;;2.25;;
74523;SDS011;63074;44.696;10.358;2022-09-09T16:21:13;7.22;;;2.17;;
74523;SDS011;63074;44.696;10.358;2022-09-09T16:23:40;3.92;;;2.13;;
74523;SDS011;63074;44.696;10.358;2022-09-09T16:26:08;6.57;;;2.47;;
74523;SDS011;63074;44.696;10.358;2022-09-09T16:28:35;4.28;;;1.92;;
74523;SDS011;63074;44.696;10.358;2022-09-09T16:31:03;4.38;;;1.55;;
74523;SDS011;63074;44.696;10.358;2022-09-09T16:33:31;4.43;;;1.48;;
74523;SDS011;63074;44.696;10.358;2022-09-09T16:35:56;3.25;;;1.10;;
74523;SDS011;63074;44.696;10.358;2022-09-09T16:38:22;6.07;;;1.35;;
74523;SDS011;63074;44.696;10.358;2022-09-09T16:40:47;7.95;;;2.08;;
74523;SDS011;63074;44.696;10.358;2022-09-09T16:43:15;7.75;;;2.33;;
74523;SDS011;63074;44.696;10.358;2022-09-09T16:45:41;6.50;;;1.92;;
74523;SDS011;63074;44.696;10.358;2022-09-09T16:48:08;4.57;;;1.70;;
74523;SDS011;63074;44.696;10.358;2022-09-09T16:50:33;3.75;;;1.15;;
74523;SDS011;63074;44.696;10.358;2022-09-09T16:52:59;4.55;;;1.60;;
74523;SDS011;63074;44.696;10.358;2022-09-09T16:55:24;2.38;;;1.35;;
74523;SDS011;63074;44.696;10.358;2022-09-09T16:57:51;9.80;;;2.97;;
74523;SDS011;63074;44.696;10.358;2022-09-09T17:00:16;6.15;;;1.52;;
74523;SDS011;63074;44.696;10.358;2022-09-09T17:02:42;3.35;;;1.52;;
74523;SDS011;63074;44.696;10.358;2022-09-09T17:05:08;4.00;;;1.40;;
74523;SDS011;63074;44.696;10.358;2022-09-09T17:07:34;3.28;;;1.67;;
74523;SDS011;63074;44.696;10.358;2022-09-09T17:10:00;4.20;;;1.85;;
74523;SDS011;63074;44.696;10.358;2022-09-09T17:12:26;6.68;;;2.30;;
74523;SDS011;63074;44.696;10.358;2022-09-09T17:14:52;5.07;;;1.60;;
74523;SDS011;63074;44.696;10.358;2022-09-09T17:17:17;7.13;;;2.53;;
74523;SDS011;63074;44.696;10.358;2022-09-09T17:19:43;9.68;;;1.90;;
74523;SDS011;63074;44.696;10.358;2022-09-09T17:22:08;2.75;;;1.58;;
74523;SDS011;63074;44.696;10.358;2022-09-09T17:24:34;5.63;;;1.42;;
74523;SDS011;63074;44.696;10.358;2022-09-09T17:27:00;2.72;;;1.90;;
74523;SDS011;63074;44.696;10.358;2022-09-09T17:29:26;5.00;;;1.65;;
74523;SDS011;63074;44.696;10.358;2022-09-09T17:31:51;2.97;;;1.90;;
74523;SDS011;63074;44.696;10.358;2022-09-09T17:34:18;5.43;;;1.58;;
74523;SDS011;63074;44.696;10.358;2022-09-09T17:36:43;4.75;;;1.80;;
74523;SDS011;63074;44.696;10.358;2022-09-09T17:39:08;4.28;;;2.13;;